»·PEaware :: N902SQ KLAS-KRAL

N902SQ :: KLAS-KRAL

FLIGHT INFORMATION

Flight Status: Arrived
Operator: Privately registered:
United States
More flights under this callsign
Pilot: Gabor H. (24209)
Aircraft: SOCATA TBM-900
(TBM9)
More flights by this aircraft type
Origin: KLAS Harry Reid Intl
United States
Destination: KRAL Riverside Mun
United States
More flights between these airports :: More routes between these airports
Route: LAS V538 CRESO V21 PDZ
File this flight plan on PilotEdge
Remarks:
Altitude:
(Current/Filed)
20,000ft
Speed:
(Current/Filed)
300kts
Departed: 29-Sep-23 09:21 AM
Arrived: 29-Sep-23 10:15 AM
Distance/Time
Traveled:
170nm/0:53
Distance/Time
To Go:
Arrived

Flight Plot

Page will automatically refresh every two minutes.

Flight plan parsing failed; only flown route is shown


Map Options




Map Legend


Flown Route
Filed Route
Departure Airport
Arrival Airport
Navaid (VOR, NDB)
Fix

Horizontal Profiles

Position Reports

Time Latitude Longitude Heading Altitude Ground
Speed
29-Sep-23 09:00 36.080692 -115.170639 268 2181ft 0kts
29-Sep-23 09:01 36.080692 -115.170639 268 2181ft 0kts
29-Sep-23 09:02 36.080692 -115.170639 268 2181ft 0kts
29-Sep-23 09:03 36.080692 -115.170639 268 2181ft 0kts
29-Sep-23 09:04 36.080692 -115.170639 268 2181ft 0kts
29-Sep-23 09:05 36.080692 -115.170639 268 2181ft 0kts
29-Sep-23 09:06 36.080692 -115.170639 268 2181ft 0kts
29-Sep-23 09:07 36.080692 -115.170639 268 2181ft 0kts
29-Sep-23 09:08 36.080692 -115.170639 268 2181ft 0kts
29-Sep-23 09:09 36.080692 -115.170639 268 2181ft 0kts
29-Sep-23 09:10 36.080692 -115.170639 268 2181ft 0kts
29-Sep-23 09:11 36.080692 -115.170639 268 2181ft 0kts
29-Sep-23 09:12 36.080692 -115.170639 268 2181ft 0kts
29-Sep-23 09:13 36.081455 -115.169997 88 2181ft 5kts
29-Sep-23 09:14 36.081456 -115.169952 87 2181ft 0kts
29-Sep-23 09:15 36.083674 -115.167977 25 2181ft 21kts
29-Sep-23 09:16 36.089877 -115.164451 25 2181ft 25kts
29-Sep-23 09:17 36.096144 -115.160871 24 2181ft 23kts
29-Sep-23 09:18 36.099760 -115.157648 80 2181ft 0kts
29-Sep-23 09:19 36.098982 -115.156827 206 2181ft 17kts
29-Sep-23 09:20 36.070755 -115.169545 187 3147ft 157kts
29-Sep-23 09:21 36.025221 -115.175104 176 5462ft 162kts
29-Sep-23 09:22 35.983003 -115.173451 177 8248ft 152kts
29-Sep-23 09:23 35.940667 -115.171740 180 11049ft 155kts
29-Sep-23 09:24 35.898444 -115.170115 182 13807ft 154kts
29-Sep-23 09:25 35.857039 -115.168499 183 16380ft 150kts
29-Sep-23 09:26 35.814696 -115.166840 183 18493ft 160kts
29-Sep-23 09:27 35.768024 -115.172212 224 19959ft 209kts
29-Sep-23 09:28 35.724202 -115.232438 227 19937ft 255kts
29-Sep-23 09:29 35.675110 -115.298817 227 19928ft 266kts
29-Sep-23 09:30 35.624738 -115.366690 227 19926ft 270kts
29-Sep-23 09:31 35.573845 -115.435107 227 19925ft 272kts
29-Sep-23 09:32 35.522723 -115.503753 227 19925ft 272kts
29-Sep-23 09:33 35.471672 -115.572156 227 19923ft 272kts
29-Sep-23 09:34 35.420535 -115.640505 227 19924ft 272kts
29-Sep-23 09:35 35.369418 -115.708687 227 19927ft 272kts
29-Sep-23 09:36 35.318197 -115.776871 227 19926ft 272kts
29-Sep-23 09:37 35.266819 -115.845126 227 19925ft 272kts
29-Sep-23 09:38 35.215641 -115.912970 227 19918ft 271kts
29-Sep-23 09:39 35.164407 -115.980753 227 19923ft 270kts
29-Sep-23 09:40 35.113343 -116.048188 227 19929ft 271kts
29-Sep-23 09:41 35.062079 -116.115743 227 19926ft 271kts
29-Sep-23 09:42 35.010685 -116.183335 227 19922ft 271kts
29-Sep-23 09:43 34.959392 -116.250656 227 19931ft 271kts
29-Sep-23 09:44 34.908108 -116.317843 227 19931ft 271kts
29-Sep-23 09:45 34.856611 -116.385166 227 19916ft 272kts
29-Sep-23 09:46 34.805087 -116.452402 227 19938ft 271kts
29-Sep-23 09:47 34.752331 -116.518006 225 19962ft 270kts
29-Sep-23 09:48 34.699572 -116.582931 225 19980ft 270kts
29-Sep-23 09:49 34.645738 -116.649044 225 19248ft 289kts
29-Sep-23 09:50 34.588159 -116.719617 225 17783ft 296kts
29-Sep-23 09:51 34.530619 -116.790008 225 16289ft 292kts
29-Sep-23 09:52 34.473697 -116.859497 225 14786ft 289kts
29-Sep-23 09:53 34.417605 -116.927830 225 13282ft 284kts
29-Sep-23 09:54 34.362368 -116.994978 225 11778ft 280kts
29-Sep-23 09:55 34.308853 -117.059911 224 10994ft 260kts
29-Sep-23 09:56 34.258914 -117.120340 224 10864ft 255kts
29-Sep-23 09:57 34.207390 -117.182720 224 9860ft 265kts
29-Sep-23 09:58 34.154998 -117.246646 224 8713ft 271kts
29-Sep-23 09:59 34.103502 -117.309754 224 7553ft 258kts
29-Sep-23 10:00 34.053621 -117.371037 224 6342ft 255kts
29-Sep-23 10:01 34.005074 -117.430838 224 5996ft 242kts
29-Sep-23 10:02 33.958516 -117.488119 224 5998ft 237kts
29-Sep-23 10:03 33.910400 -117.547192 224 5150ft 255kts
29-Sep-23 10:04 33.881268 -117.617949 291 4069ft 262kts
29-Sep-23 10:05 33.908040 -117.695714 291 4003ft 246kts
29-Sep-23 10:06 33.934253 -117.771649 291 3999ft 244kts
29-Sep-23 10:07 33.984856 -117.808463 13 3986ft 246kts
29-Sep-23 10:08 34.008788 -117.737012 87 3998ft 237kts
29-Sep-23 10:09 33.994114 -117.663089 100 3362ft 217kts
29-Sep-23 10:10 33.981485 -117.595550 103 2988ft 189kts
29-Sep-23 10:11 33.971013 -117.540852 103 2276ft 140kts
29-Sep-23 10:12 33.961678 -117.492536 100 1515ft 138kts
29-Sep-23 10:13 33.954780 -117.456606 99 930ft 98kts
29-Sep-23 10:14 33.951637 -117.443706 188 818ft 0kts
29-Sep-23 10:15 33.951121 -117.443601 112 818ft 10kts
29-Sep-23 10:16 33.950896 -117.442645 111 818ft 6kts
29-Sep-23 10:17 33.950305 -117.442925 210 818ft 0kts
29-Sep-23 10:18 33.950305 -117.442925 210 818ft 0kts
29-Sep-23 10:19 33.950305 -117.442925 210 818ft 0kts
29-Sep-23 10:20 33.950305 -117.442924 210 818ft 0kts
29-Sep-23 10:21 33.950305 -117.442924 210 818ft 0kts
29-Sep-23 10:22 33.950305 -117.442924 210 818ft 0kts
29-Sep-23 10:23 33.950305 -117.442924 210 818ft 0kts
29-Sep-23 10:24 33.950305 -117.442924 210 818ft 0kts
29-Sep-23 10:25 33.950305 -117.442924 210 818ft 0kts
29-Sep-23 10:26 33.950305 -117.442924 210 818ft 0kts
29-Sep-23 10:27 33.950305 -117.442924 210 818ft 0kts
29-Sep-23 10:28 33.950206 -117.443073 267 818ft 1kts

Navigation Log

Ident Type
Flight plan parsing failed, navigation log unavailable